Portada
METAR-TAF:

METAR-TAF

Aeroports :

Pakse, Laos

latitud: 15-08-02N, longitud: 105-46-55E, altitud: 107 m

Observació

L'informe es va fer fa 8 hores i 45 minuts, a les 12:00 UTC
Vent 2 kt del Sud
Temperatura 28°C
Humitat 79%
Pressió 1008 hPa
Visibilitat 10 km o més
Escasses núvols a una alçada de 2000 ft, Cumulonimbus.
Escasses núvols a una alçada de 5000 ft
Cel ennuvolat a una alçada de 20000 ft
tempesta

METAR: VLPS 291200Z 18002KT 9999 TS FEW020CB FEW050 BKN200 28/24 Q1008 CB,S NOSIG

Hora: 03:45 (20:45 UTC)

Pronòstic

L'informe es va fer fa 3 hores i 45 minuts, a les 17:00 UTC
Pronòstic vàlid del 29 a les 18 UTC al 30 a les 18 UTC
Vent 6 kt del Sud
Visibilitat: 7000 m
Núvols disperses a una alçada de 1600 ft
Escasses núvols a una alçada de 5000 ft
Núvols disperses a una alçada de 20000 ft

TAF: VLPS 291700Z 2918/3018 18006KT 7000 SCT016 FEW050 SCT200

Observacions i pronòstics meteorològics de més de 4000 aeroports (METAR i TAF).

Les estacions disponibles són els punts grocs i vermells al mapa.

Posi el ratolí al punt desitjat per veure el nom de l'estació.

Feu clic per veure les observacions i els pronòstics meteorològics.

Per canviar el mapa: feu clic els botons verds amb una creu de color negre per apropar; al botó verd amb un guió per allunyar la imatge; o en les fletxes verdes per a mapes adjacents.


METAR-TAF: